createdAt,value
2022-11-23T00:01:52.967Z,0.65
2022-11-23T00:04:38.488Z,0.77
2022-11-23T00:07:23.804Z,0.52
2022-11-23T00:10:09.623Z,0.70
2022-11-23T00:12:54.951Z,0.60
2022-11-23T00:15:41.139Z,0.82
2022-11-23T00:18:27.068Z,0.80
2022-11-23T00:21:15.192Z,0.70
2022-11-23T00:24:01.532Z,0.90
2022-11-23T00:26:47.276Z,0.80
2022-11-23T00:29:33.537Z,0.60
2022-11-23T00:32:19.387Z,0.80
2022-11-23T00:35:05.123Z,0.80
2022-11-23T00:37:51.033Z,0.70
2022-11-23T00:40:36.639Z,0.80
2022-11-23T00:43:22.171Z,0.60
2022-11-23T00:46:12.406Z,0.70
2022-11-23T00:48:58.538Z,0.68
2022-11-23T00:51:44.454Z,0.60
2022-11-23T00:54:32.072Z,0.70
2022-11-23T00:57:17.590Z,0.75
2022-11-23T01:00:06.284Z,0.88
2022-11-23T01:02:51.758Z,0.60
2022-11-23T01:05:38.470Z,0.70
2022-11-23T01:08:24.128Z,0.75
2022-11-23T01:11:12.541Z,0.73
2022-11-23T01:13:58.762Z,0.60
2022-11-23T01:16:44.342Z,0.60
2022-11-23T01:19:30.859Z,0.63
2022-11-23T01:22:16.670Z,0.65
2022-11-23T01:25:02.418Z,0.68
2022-11-23T01:27:48.419Z,0.70
2022-11-23T01:30:34.589Z,0.52
2022-11-23T01:33:20.140Z,0.68
2022-11-23T01:36:27.079Z,0.60
2022-11-23T01:39:13.526Z,0.50
2022-11-23T01:42:00.001Z,0.52
2022-11-23T01:44:45.759Z,0.50
2022-11-23T01:47:31.347Z,0.77
2022-11-23T01:50:16.933Z,1.05
2022-11-23T01:53:02.787Z,0.50
2022-11-23T01:55:49.585Z,0.50
2022-11-23T01:58:39.336Z,0.60
2022-11-23T02:01:25.424Z,0.50
2022-11-23T02:04:17.793Z,0.40
2022-11-23T02:07:04.891Z,0.52
2022-11-23T02:09:50.732Z,0.57
2022-11-23T02:12:36.915Z,0.60
2022-11-23T02:15:23.009Z,0.52
2022-11-23T02:18:35.805Z,0.50
2022-11-23T02:21:23.555Z,0.68
2022-11-23T02:24:35.583Z,0.50
2022-11-23T02:27:22.761Z,0.70
2022-11-23T02:30:09.326Z,0.60
2022-11-23T02:32:56.944Z,0.50
2022-11-23T02:36:02.277Z,0.50
2022-11-23T02:38:48.460Z,0.70
2022-11-23T02:41:43.057Z,0.47
2022-11-23T02:44:34.818Z,0.50
2022-11-23T02:47:20.497Z,0.77
2022-11-23T02:50:06.402Z,0.70
2022-11-23T02:52:52.587Z,0.60
2022-11-23T02:55:38.143Z,0.73
2022-11-23T02:58:23.634Z,0.60
2022-11-23T03:01:10.255Z,0.70
2022-11-23T03:03:56.730Z,0.70
2022-11-23T03:06:42.359Z,0.57
2022-11-23T03:09:28.320Z,0.45
2022-11-23T03:12:14.524Z,0.50
2022-11-23T03:15:00.411Z,0.50
2022-11-23T03:17:46.267Z,0.65
2022-11-23T03:20:33.330Z,0.40
2022-11-23T03:23:18.754Z,0.50
2022-11-23T03:26:09.767Z,0.60
2022-11-23T03:29:05.247Z,0.50
2022-11-23T03:31:51.094Z,0.43
2022-11-23T03:34:38.593Z,0.47
2022-11-23T03:37:25.383Z,0.70
2022-11-23T03:40:12.463Z,0.50
2022-11-23T03:43:17.917Z,0.52
2022-11-23T03:46:03.517Z,0.70
2022-11-23T03:48:49.162Z,0.40
2022-11-23T03:51:34.791Z,0.60
2022-11-23T03:54:20.236Z,0.50
2022-11-23T03:57:07.237Z,0.70
2022-11-23T03:59:53.032Z,0.45
2022-11-23T04:02:38.540Z,0.60
2022-11-23T04:05:28.521Z,0.60
2022-11-23T04:08:45.442Z,0.47
2022-11-23T04:11:37.891Z,0.40
2022-11-23T04:14:23.618Z,0.50
2022-11-23T04:17:10.001Z,0.70
2022-11-23T04:19:56.040Z,0.50
2022-11-23T04:22:43.630Z,0.60
2022-11-23T04:25:29.582Z,0.50
2022-11-23T04:28:16.668Z,0.40
2022-11-23T04:31:04.865Z,0.50
2022-11-23T04:33:59.635Z,0.60
2022-11-23T04:36:46.342Z,0.50
2022-11-23T04:39:33.049Z,0.52
2022-11-23T04:42:36.920Z,0.57
2022-11-23T04:45:22.564Z,0.52
2022-11-23T04:48:08.664Z,0.47
2022-11-23T04:50:56.076Z,0.47
2022-11-23T04:53:48.859Z,0.60
2022-11-23T04:56:34.618Z,0.50
2022-11-23T04:59:20.238Z,0.75
2022-11-23T05:02:06.155Z,0.60
2022-11-23T05:05:17.957Z,0.75
2022-11-23T05:08:03.605Z,0.50
2022-11-23T05:11:10.523Z,0.55
2022-11-23T05:13:56.975Z,0.50
2022-11-23T05:16:42.906Z,0.55
2022-11-23T05:19:28.470Z,0.60
2022-11-23T05:22:14.845Z,0.40
2022-11-23T05:25:01.994Z,0.50
2022-11-23T05:27:50.162Z,0.52
2022-11-23T05:30:36.084Z,0.50
2022-11-23T05:33:21.688Z,0.50
2022-11-23T05:36:07.400Z,0.60
2022-11-23T05:38:59.430Z,0.50
2022-11-23T05:41:49.841Z,0.40
2022-11-23T05:44:47.549Z,0.40
2022-11-23T05:47:39.676Z,0.40
2022-11-23T05:50:31.382Z,0.40
2022-11-23T05:53:35.619Z,0.40
2022-11-23T05:56:33.732Z,0.65
2022-11-23T05:59:27.762Z,0.50
2022-11-23T06:02:18.842Z,0.60
2022-11-23T06:05:07.061Z,0.40
2022-11-23T06:08:01.159Z,0.30
2022-11-23T06:10:46.568Z,0.50
2022-11-23T06:13:31.968Z,0.43
2022-11-23T06:16:18.575Z,0.77
2022-11-23T06:19:17.021Z,0.70
2022-11-23T06:22:02.692Z,0.50
2022-11-23T06:24:52.203Z,1.13
2022-11-23T06:27:55.936Z,0.85
2022-11-23T06:30:44.706Z,1.08
2022-11-23T06:33:31.667Z,1.95
2022-11-23T06:36:17.754Z,1.10
2022-11-23T06:39:09.155Z,1.13
2022-11-23T06:42:10.753Z,0.70
2022-11-23T06:45:05.359Z,0.75
2022-11-23T06:47:57.493Z,1.45
2022-11-23T06:50:48.853Z,0.70
2022-11-23T06:53:40.160Z,0.75
2022-11-23T06:56:31.994Z,0.90
2022-11-23T06:59:20.219Z,0.70
2022-11-23T07:02:08.378Z,0.73
2022-11-23T07:04:57.160Z,0.88
2022-11-23T07:07:46.057Z,0.75
2022-11-23T07:10:40.910Z,1.00
2022-11-23T07:13:32.530Z,0.40
2022-11-23T07:16:20.140Z,0.70
2022-11-23T07:19:10.392Z,0.80
2022-11-23T07:21:58.205Z,0.90
2022-11-23T07:24:47.241Z,1.02
2022-11-23T07:27:36.945Z,0.60
2022-11-23T07:30:29.163Z,0.80
2022-11-23T07:33:15.742Z,0.80
2022-11-23T07:36:02.838Z,0.70
2022-11-23T07:38:49.907Z,0.80
2022-11-23T07:41:37.790Z,0.70
2022-11-23T07:44:39.438Z,0.90
2022-11-23T07:47:28.136Z,0.95
2022-11-23T07:50:14.001Z,0.75
2022-11-23T07:53:01.536Z,0.98
2022-11-23T07:55:47.182Z,1.23
2022-11-23T07:58:33.133Z,1.00
2022-11-23T08:01:19.463Z,0.70
2022-11-23T08:04:05.387Z,0.55
2022-11-23T08:06:50.903Z,0.70
2022-11-23T08:09:36.763Z,0.60
2022-11-23T08:12:22.610Z,0.80
2022-11-23T08:15:08.350Z,0.63
2022-11-23T08:18:02.046Z,0.60
2022-11-23T08:20:47.535Z,1.20
2022-11-23T08:23:33.194Z,0.50
2022-11-23T08:26:18.998Z,0.80
2022-11-23T08:29:05.370Z,0.57
2022-11-23T08:31:51.607Z,0.82
2022-11-23T08:34:37.419Z,0.90
2022-11-23T08:37:23.076Z,0.55
2022-11-23T08:40:09.366Z,0.70
2022-11-23T08:42:55.382Z,1.35
2022-11-23T08:45:41.166Z,0.80
2022-11-23T08:48:27.550Z,1.02
2022-11-23T08:51:13.291Z,0.90
2022-11-23T08:53:58.701Z,0.73
2022-11-23T08:56:44.252Z,0.75
2022-11-23T08:59:29.800Z,0.40
2022-11-23T09:02:15.514Z,1.00
2022-11-23T09:05:01.159Z,0.90
2022-11-23T09:07:46.706Z,0.50
2022-11-23T09:10:32.271Z,0.65
2022-11-23T09:13:17.692Z,0.50
2022-11-23T09:16:04.674Z,0.60
2022-11-23T09:18:50.379Z,0.68
2022-11-23T09:21:39.139Z,0.47
2022-11-23T09:24:25.921Z,0.65
2022-11-23T09:27:13.290Z,0.70
2022-11-23T09:29:58.991Z,0.60
2022-11-23T09:32:44.498Z,0.50
2022-11-23T09:35:30.092Z,0.80
2022-11-23T09:38:15.648Z,0.45
2022-11-23T09:41:23.794Z,0.60
2022-11-23T09:44:52.586Z,0.60
2022-11-23T09:47:49.823Z,0.60
2022-11-23T09:50:56.522Z,0.70
2022-11-23T09:54:00.729Z,0.50
2022-11-23T09:56:50.955Z,0.98
2022-11-23T09:59:54.915Z,0.60
2022-11-23T10:02:41.149Z,0.57
2022-11-23T10:05:31.056Z,0.50
2022-11-23T10:08:34.084Z,0.52
2022-11-23T10:11:29.183Z,0.55
2022-11-23T10:14:34.219Z,1.27
2022-11-23T10:18:04.769Z,0.73
2022-11-23T10:21:07.069Z,0.88
2022-11-23T10:24:03.425Z,0.40
2022-11-23T10:26:50.603Z,0.80
2022-11-23T10:29:38.538Z,0.50
2022-11-23T10:32:41.623Z,0.57
2022-11-23T10:35:33.930Z,0.43
2022-11-23T10:38:21.322Z,0.50
2022-11-23T10:41:10.362Z,0.63
2022-11-23T10:44:18.931Z,0.43
2022-11-23T10:47:05.470Z,0.45
2022-11-23T10:49:58.502Z,0.80
2022-11-23T10:52:52.073Z,0.63
2022-11-23T10:55:54.959Z,0.55
2022-11-23T10:58:45.762Z,0.50
2022-11-23T11:01:31.381Z,0.65
2022-11-23T11:04:23.406Z,0.50
2022-11-23T11:07:29.951Z,0.80
2022-11-23T11:10:36.503Z,0.80
2022-11-23T11:13:39.988Z,0.60
2022-11-23T11:16:27.014Z,0.60
2022-11-23T11:19:36.246Z,0.65
2022-11-23T11:22:48.435Z,0.77
2022-11-23T11:25:37.767Z,0.65
2022-11-23T11:28:35.207Z,0.45
2022-11-23T11:31:27.134Z,0.47
2022-11-23T11:34:21.491Z,0.55
2022-11-23T11:37:19.053Z,0.50
2022-11-23T11:40:40.131Z,0.80
2022-11-23T11:43:42.608Z,0.80
2022-11-23T11:46:42.259Z,0.68
2022-11-23T11:49:41.479Z,0.57
2022-11-23T11:52:38.000Z,0.60
2022-11-23T11:55:45.414Z,0.70
2022-11-23T11:58:32.738Z,0.65
2022-11-23T12:01:44.774Z,0.77
2022-11-23T12:04:55.337Z,0.57
2022-11-23T12:08:08.360Z,0.88
2022-11-23T12:10:58.154Z,0.65
2022-11-23T12:13:46.884Z,0.55
2022-11-23T12:17:31.581Z,0.73
2022-11-23T12:20:33.143Z,0.80
2022-11-23T12:23:33.042Z,0.63
2022-11-23T12:26:21.916Z,0.80
2022-11-23T12:29:24.714Z,0.50
2022-11-23T12:32:35.906Z,0.93
2022-11-23T12:35:24.295Z,1.25
2022-11-23T12:38:52.710Z,0.60
2022-11-23T12:41:59.513Z,0.70
2022-11-23T12:45:17.348Z,0.80
2022-11-23T12:48:18.981Z,0.43
2022-11-23T12:51:26.647Z,0.85
2022-11-23T12:54:34.174Z,0.90
2022-11-23T12:57:37.327Z,0.68
2022-11-23T13:00:24.060Z,0.90
2022-11-23T13:03:31.603Z,0.80
2022-11-23T13:06:20.416Z,0.63
2022-11-23T13:09:33.138Z,1.15
2022-11-23T13:12:37.393Z,0.73
2022-11-23T13:15:35.145Z,0.70
2022-11-23T13:19:05.138Z,0.80
2022-11-23T13:21:51.075Z,1.20
2022-11-23T13:24:39.597Z,0.70
2022-11-23T13:27:31.448Z,0.82
2022-11-23T13:30:51.820Z,0.65
2022-11-23T13:33:38.038Z,0.90
2022-11-23T13:36:49.289Z,1.05
2022-11-23T13:39:45.314Z,0.82
2022-11-23T13:42:33.967Z,1.38
2022-11-23T13:45:19.818Z,0.70
2022-11-23T13:48:34.390Z,0.85
2022-11-23T13:51:37.184Z,1.25
2022-11-23T13:54:24.896Z,1.20
2022-11-23T13:57:13.361Z,1.20
2022-11-23T14:00:36.559Z,1.60
2022-11-23T14:03:50.015Z,1.33
2022-11-23T14:06:58.992Z,0.93
2022-11-23T14:10:16.555Z,1.25
2022-11-23T14:13:10.535Z,0.93
2022-11-23T14:16:00.516Z,1.48
2022-11-23T14:19:02.481Z,0.60
2022-11-23T14:22:38.962Z,1.00
2022-11-23T14:25:34.650Z,0.70
2022-11-23T14:28:30.387Z,0.63
2022-11-23T14:31:43.659Z,0.80
2022-11-23T14:34:48.222Z,0.68
2022-11-23T14:37:55.364Z,0.73
2022-11-23T14:40:53.052Z,1.08
2022-11-23T14:43:41.929Z,0.95
2022-11-23T14:46:27.795Z,1.35
2022-11-23T14:49:15.591Z,1.27
2022-11-23T14:52:03.223Z,0.77
2022-11-23T14:54:51.451Z,0.90
2022-11-23T14:57:43.056Z,0.70
2022-11-23T15:00:31.315Z,0.70
2022-11-23T15:03:50.032Z,0.57
2022-11-23T15:06:33.404Z,1.00
2022-11-23T15:09:57.002Z,1.30
2022-11-23T15:12:48.468Z,1.10
2022-11-23T15:15:38.083Z,1.63
2022-11-23T15:18:29.151Z,1.92
2022-11-23T15:21:27.869Z,1.70
2022-11-23T15:24:24.297Z,1.60
2022-11-23T15:27:19.251Z,1.90
2022-11-23T15:30:16.094Z,1.50
2022-11-23T15:33:05.548Z,1.63
2022-11-23T15:35:53.617Z,1.60
2022-11-23T15:38:39.544Z,1.92
2022-11-23T15:41:26.993Z,1.60
2022-11-23T15:44:31.059Z,1.27
2022-11-23T15:47:21.054Z,1.60
2022-11-23T15:50:09.735Z,1.45
2022-11-23T15:52:55.442Z,1.38
2022-11-23T15:55:42.934Z,1.30
2022-11-23T15:58:29.445Z,1.08
2022-11-23T16:01:16.206Z,1.55
2022-11-23T16:04:03.914Z,1.23
2022-11-23T16:06:49.593Z,1.60
2022-11-23T16:09:52.256Z,1.15
2022-11-23T16:12:56.634Z,1.48
2022-11-23T16:15:43.536Z,0.90
2022-11-23T16:18:31.469Z,1.10
2022-11-23T16:21:19.590Z,0.98
2022-11-23T16:24:05.743Z,1.95
2022-11-23T16:26:53.476Z,1.42
2022-11-23T16:29:39.028Z,1.08
2022-11-23T16:32:29.982Z,1.15
2022-11-23T16:35:18.196Z,1.45
2022-11-23T16:38:03.851Z,1.10
2022-11-23T16:40:49.746Z,1.30
2022-11-23T16:43:35.354Z,2.08
2022-11-23T16:46:20.983Z,0.90
2022-11-23T16:49:12.929Z,1.35
2022-11-23T16:51:58.676Z,2.08
2022-11-23T16:54:44.435Z,1.13
2022-11-23T16:57:33.389Z,0.90
2022-11-23T17:00:22.990Z,1.30
2022-11-23T17:03:17.640Z,1.02
2022-11-23T17:06:04.871Z,1.17
2022-11-23T17:08:59.396Z,1.20
2022-11-23T17:11:50.806Z,1.00
2022-11-23T17:14:39.419Z,0.95
2022-11-23T17:17:25.024Z,0.85
2022-11-23T17:20:13.271Z,1.35
2022-11-23T17:23:01.189Z,1.00
2022-11-23T17:25:46.887Z,0.80
2022-11-23T17:28:32.470Z,1.10
2022-11-23T17:31:18.360Z,1.38
2022-11-23T17:34:03.935Z,0.95
2022-11-23T17:36:51.612Z,0.82
2022-11-23T17:39:37.606Z,0.70
2022-11-23T17:42:23.210Z,1.48
2022-11-23T17:45:09.405Z,0.90
2022-11-23T17:47:58.314Z,1.40
2022-11-23T17:50:47.985Z,1.00
2022-11-23T17:53:33.739Z,0.95
2022-11-23T17:56:22.332Z,0.93
2022-11-23T17:59:09.051Z,0.80
2022-11-23T18:01:54.533Z,1.13
2022-11-23T18:04:40.070Z,0.73
2022-11-23T18:07:25.640Z,0.70
2022-11-23T18:10:15.968Z,0.90
2022-11-23T18:13:01.675Z,0.70
2022-11-23T18:15:47.384Z,3.15
2022-11-23T18:18:33.036Z,20.20
2022-11-23T18:21:18.906Z,25.20
2022-11-23T18:24:05.067Z,43.80
2022-11-23T18:26:50.561Z,60.95
2022-11-23T18:29:36.643Z,100.18
2022-11-23T18:32:22.360Z,139.70
2022-11-23T18:35:08.533Z,141.40
2022-11-23T18:37:54.412Z,157.43
2022-11-23T18:40:39.891Z,159.45
2022-11-23T18:43:25.418Z,185.10
2022-11-23T18:46:12.359Z,208.68
2022-11-23T18:48:57.830Z,218.15
2022-11-23T18:51:43.624Z,218.38
2022-11-23T18:54:29.766Z,222.95
2022-11-23T18:57:16.829Z,224.82
2022-11-23T19:00:04.499Z,231.35
2022-11-23T19:02:58.730Z,237.70
2022-11-23T19:05:44.350Z,236.30
2022-11-23T19:08:30.419Z,234.43
2022-11-23T19:11:21.927Z,218.35
2022-11-23T19:14:09.381Z,219.70
2022-11-23T19:16:54.818Z,211.68
2022-11-23T19:19:40.363Z,219.30
2022-11-23T19:22:25.848Z,215.18
2022-11-23T19:25:11.287Z,214.30
2022-11-23T19:27:57.055Z,201.18
2022-11-23T19:30:42.797Z,202.73
2022-11-23T19:33:29.817Z,198.55
2022-11-23T19:36:17.591Z,198.10
2022-11-23T19:39:05.260Z,184.43
2022-11-23T19:41:50.753Z,191.95
2022-11-23T19:44:36.214Z,193.07
2022-11-23T19:47:23.030Z,179.52
2022-11-23T19:50:09.210Z,183.40
2022-11-23T19:53:11.928Z,177.23
2022-11-23T19:56:16.007Z,173.77
2022-11-23T19:59:01.896Z,162.90
2022-11-23T20:01:47.529Z,154.38
2022-11-23T20:04:33.016Z,157.45
2022-11-23T20:07:19.299Z,160.93
2022-11-23T20:10:05.370Z,145.32
2022-11-23T20:12:50.750Z,154.48
2022-11-23T20:15:36.213Z,147.35
2022-11-23T20:18:24.438Z,146.18
2022-11-23T20:21:16.120Z,144.07
2022-11-23T20:24:05.710Z,136.80
2022-11-23T20:26:51.798Z,139.57
2022-11-23T20:29:38.049Z,139.15
2022-11-23T20:32:23.505Z,142.57
2022-11-23T20:35:09.283Z,144.73
2022-11-23T20:37:55.253Z,136.00
2022-11-23T20:40:40.799Z,137.30
2022-11-23T20:43:26.365Z,141.40
2022-11-23T20:46:12.632Z,140.55
2022-11-23T20:48:58.708Z,134.73
2022-11-23T20:51:44.457Z,133.38
2022-11-23T20:54:31.392Z,137.05
2022-11-23T20:57:17.458Z,134.10
2022-11-23T21:00:03.780Z,135.70
2022-11-23T21:02:54.580Z,131.60
2022-11-23T21:05:40.091Z,131.48
2022-11-23T21:08:33.144Z,129.93
2022-11-23T21:11:41.359Z,127.90
2022-11-23T21:14:31.600Z,122.40
2022-11-23T21:17:17.596Z,121.75
2022-11-23T21:20:03.699Z,120.13
2022-11-23T21:22:49.258Z,118.78
2022-11-23T21:25:35.654Z,116.53
2022-11-23T21:28:21.415Z,114.88
2022-11-23T21:31:08.318Z,114.47
2022-11-23T21:33:54.241Z,110.15
2022-11-23T21:36:41.142Z,107.20
2022-11-23T21:39:26.618Z,106.55
2022-11-23T21:42:12.018Z,107.50
2022-11-23T21:44:57.474Z,103.68
2022-11-23T21:47:43.231Z,105.60
2022-11-23T21:50:28.956Z,102.20
2022-11-23T21:53:14.470Z,104.78
2022-11-23T21:56:04.843Z,96.78
2022-11-23T21:58:50.909Z,95.22
2022-11-23T22:01:37.634Z,91.97
2022-11-23T22:04:23.384Z,97.50
2022-11-23T22:07:08.906Z,95.82
2022-11-23T22:09:54.408Z,90.60
2022-11-23T22:12:40.032Z,90.88
2022-11-23T22:15:26.679Z,87.45
2022-11-23T22:18:12.538Z,84.57
2022-11-23T22:21:04.082Z,85.00
2022-11-23T22:23:49.650Z,88.63
2022-11-23T22:26:35.829Z,82.40
2022-11-23T22:29:22.105Z,83.55
2022-11-23T22:32:07.560Z,78.15
2022-11-23T22:34:53.309Z,44.47
2022-11-23T22:37:39.106Z,46.67
2022-11-23T22:40:24.579Z,33.75
2022-11-23T22:43:10.147Z,35.20
2022-11-23T22:46:05.202Z,41.03
2022-11-23T22:48:52.766Z,30.83
2022-11-23T22:51:38.353Z,24.33
2022-11-23T22:54:24.351Z,28.60
2022-11-23T22:57:09.869Z,27.87
2022-11-23T22:59:55.699Z,21.07
2022-11-23T23:02:41.246Z,17.00
2022-11-23T23:05:26.700Z,12.30
2022-11-23T23:08:13.760Z,13.80
2022-11-23T23:11:07.143Z,15.00
2022-11-23T23:13:53.684Z,14.40
2022-11-23T23:16:39.693Z,9.47
2022-11-23T23:19:25.891Z,12.33
2022-11-23T23:22:11.746Z,11.47
2022-11-23T23:24:57.579Z,9.83
2022-11-23T23:27:43.483Z,8.30
2022-11-23T23:30:28.984Z,7.17
2022-11-23T23:33:14.547Z,7.87
2022-11-23T23:36:17.834Z,6.57
2022-11-23T23:39:04.675Z,5.87
2022-11-23T23:41:50.348Z,5.47
2022-11-23T23:44:35.907Z,6.13
2022-11-23T23:47:21.795Z,5.67
2022-11-23T23:50:08.186Z,4.83
2022-11-23T23:52:54.048Z,4.73
2022-11-23T23:55:39.825Z,4.17
2022-11-23T23:58:25.475Z,4.37
